Portada
METAR-TAF:

METAR-TAF

Aeroports :

Nouakchott, Mauritània

latitud: 18-18-36N, longitud: 015-58-11W, altitud: 3 m

Observació

L'informe es va fer fa 28 minuts, a les 06:30 UTC
Vent 7 kt del Nord/Nord-Est
Temperatura 10°C
Humitat 43%
Pressió 1019 hPa
Visibilitat 10 km o més
sense núvols per sota de 1500 mi sense presència de cumulonimbus.

METAR: GQNO 200630Z 03007KT CAVOK 10/M02 Q1019 NOSIG

Hora: 06:58 (06:58 UTC)

Pronòstic

L'informe es va fer fa 1 hora i 58 minuts, a les 05:00 UTC
Pronòstic vàlid del 20 a les 06 UTC al 21 a les 12 UTC
Vent 13 kt del Est/Nord-Est
Visibilitat: 6000 m
Probabilitat 40% :
Temporalment
l' 20 a les 10 UTC al 20 a les 15 UTC
Visibilitat: 3500 m
torb alta de sora

TAF: GQNO 200500Z 2006/2112 06013KT 6000 NSC PROB40 TEMPO 2010/2015 3500 BLSA

Observacions i pronòstics meteorològics de més de 4000 aeroports (METAR i TAF).

Les estacions disponibles són els punts grocs i vermells al mapa.

Posi el ratolí al punt desitjat per veure el nom de l'estació.

Feu clic per veure les observacions i els pronòstics meteorològics.

Per canviar el mapa: feu clic els botons verds amb una creu de color negre per apropar; al botó verd amb un guió per allunyar la imatge; o en les fletxes verdes per a mapes adjacents.


METAR-TAF: